createdAt,value
2022-12-23T00:01:57.964Z,100122.59
2022-12-23T00:05:04.958Z,100116.16
2022-12-23T00:08:08.168Z,100111.87
2022-12-23T00:11:17.601Z,100100.72
2022-12-23T00:14:39.046Z,100103.34
2022-12-23T00:17:44.247Z,100102.66
2022-12-23T00:20:48.808Z,100101.16
2022-12-23T00:23:52.428Z,100100.31
2022-12-23T00:26:55.330Z,100083.16
2022-12-23T00:29:58.138Z,100086.19
2022-12-23T00:33:02.351Z,100082.06
2022-12-23T00:36:19.494Z,100061.19
2022-12-23T00:39:41.208Z,100072.59
2022-12-23T00:42:56.072Z,100074.50
2022-12-23T00:45:58.918Z,100062.12
2022-12-23T00:49:20.398Z,100052.94
2022-12-23T00:52:24.340Z,100055.41
2022-12-23T00:55:27.276Z,100040.56
2022-12-23T00:58:32.179Z,100043.84
2022-12-23T01:01:54.210Z,100047.44
2022-12-23T01:05:15.691Z,100043.16
2022-12-23T01:08:18.637Z,100043.75
2022-12-23T01:11:22.477Z,100042.38
2022-12-23T01:14:26.035Z,100042.38
2022-12-23T01:17:28.880Z,100030.44
2022-12-23T01:20:41.315Z,100021.22
2022-12-23T01:23:44.306Z,100031.69
2022-12-23T01:26:47.231Z,100036.91
2022-12-23T01:29:50.164Z,100030.84
2022-12-23T01:32:55.852Z,100021.78
2022-12-23T01:36:08.244Z,100021.91
2022-12-23T01:39:11.391Z,100024.53
2022-12-23T01:42:34.690Z,100019.44
2022-12-23T01:45:37.721Z,100010.25
2022-12-23T01:48:42.759Z,100003.53
2022-12-23T01:51:45.556Z,99990.75
2022-12-23T01:54:51.618Z,99990.75
2022-12-23T01:57:56.204Z,99990.06
2022-12-23T02:01:18.566Z,99981.00
2022-12-23T02:04:26.080Z,99986.09
2022-12-23T02:07:47.252Z,99984.59
2022-12-23T02:10:53.102Z,99983.63
2022-12-23T02:14:42.789Z,99987.78
2022-12-23T02:18:04.209Z,99989.28
2022-12-23T02:21:19.376Z,99991.34
2022-12-23T02:24:25.029Z,99989.25
2022-12-23T02:27:31.952Z,99993.25
2022-12-23T02:30:41.311Z,99977.31
2022-12-23T02:34:10.176Z,99984.16
2022-12-23T02:37:36.871Z,99981.09
2022-12-23T02:41:01.889Z,99986.47
2022-12-23T02:44:16.119Z,99980.28
2022-12-23T02:47:26.000Z,99980.00
2022-12-23T02:50:32.015Z,99975.75
2022-12-23T02:53:41.956Z,99970.81
2022-12-23T02:56:47.350Z,99969.16
2022-12-23T02:59:51.961Z,99966.97
2022-12-23T03:02:54.895Z,99961.22
2022-12-23T03:05:58.245Z,99961.47
2022-12-23T03:09:08.443Z,99956.13
2022-12-23T03:12:28.347Z,99946.25
2022-12-23T03:16:01.428Z,99952.84
2022-12-23T03:19:35.301Z,99942.44
2022-12-23T03:22:53.269Z,99932.84
2022-12-23T03:26:02.811Z,99925.56
2022-12-23T03:29:15.723Z,99930.00
2022-12-23T03:32:19.947Z,99936.28
2022-12-23T03:35:37.366Z,99944.22
2022-12-23T03:38:42.187Z,99947.09
2022-12-23T03:41:51.745Z,99927.22
2022-12-23T03:45:36.495Z,99921.03
2022-12-23T03:48:25.073Z,99918.97
2022-12-23T03:51:32.913Z,99921.47
2022-12-23T03:54:48.692Z,99927.34
2022-12-23T03:57:58.428Z,99940.78
2022-12-23T04:01:20.323Z,99932.97
2022-12-23T04:04:29.952Z,99944.34
2022-12-23T04:07:40.769Z,99951.34
2022-12-23T04:10:44.098Z,99941.19
2022-12-23T04:13:48.459Z,99954.78
2022-12-23T04:16:55.947Z,99946.00
2022-12-23T04:20:02.032Z,99953.69
2022-12-23T04:23:08.285Z,99940.78
2022-12-23T04:26:14.372Z,99940.09
2022-12-23T04:29:17.524Z,99953.00
2022-12-23T04:32:20.515Z,99963.41
2022-12-23T04:35:26.015Z,99957.25
2022-12-23T04:38:29.034Z,99919.13
2022-12-23T04:41:32.120Z,99925.16
2022-12-23T04:44:38.184Z,99922.56
2022-12-23T04:47:44.119Z,99902.13
2022-12-23T04:50:50.528Z,99906.91
2022-12-23T04:53:53.458Z,99900.34
2022-12-23T04:56:56.456Z,99900.34
2022-12-23T05:00:02.495Z,99885.94
2022-12-23T05:03:06.508Z,99867.97
2022-12-23T05:06:09.564Z,99859.47
2022-12-23T05:09:12.454Z,99857.81
2022-12-23T05:12:20.217Z,99863.31
2022-12-23T05:15:26.159Z,99874.81
2022-12-23T05:18:29.038Z,99881.81
2022-12-23T05:21:32.056Z,99886.34
2022-12-23T05:49:48.848Z,99948.59
2022-12-23T05:52:52.039Z,99954.63
2022-12-23T05:55:54.966Z,99959.56
2022-12-23T05:58:58.291Z,99949.16
2022-12-23T06:02:01.426Z,99942.03
2022-12-23T06:05:04.738Z,99948.31
